createdAt,value
2022-10-18T00:01:05.802Z,102626.63
2022-10-18T00:03:34.782Z,102625.78
2022-10-18T00:06:03.717Z,102606.53
2022-10-18T00:08:32.195Z,102618.91
2022-10-18T00:10:59.711Z,102616.34
2022-10-18T00:13:28.359Z,102624.22
2022-10-18T00:16:03.571Z,102626.91
2022-10-18T00:18:31.668Z,102614.63
2022-10-18T00:21:09.732Z,102620.75
2022-10-18T00:23:37.517Z,102619.03
2022-10-18T00:26:14.375Z,102617.28
2022-10-18T00:28:43.297Z,102612.94
2022-10-18T00:31:17.781Z,102618.19
2022-10-18T00:33:46.861Z,102611.13
2022-10-18T00:36:14.754Z,102609.44
2022-10-18T00:38:43.442Z,102600.63
2022-10-18T00:41:14.822Z,102600.59
2022-10-18T00:43:59.673Z,102605.03
2022-10-18T00:46:30.316Z,102601.56
2022-10-18T00:49:01.595Z,102592.81
2022-10-18T00:51:34.252Z,102598.09
2022-10-18T00:54:02.351Z,102590.19
2022-10-18T00:56:30.317Z,102595.50
2022-10-18T00:58:58.405Z,102605.97
2022-10-18T01:01:28.386Z,102596.38
2022-10-18T01:03:57.647Z,102584.97
2022-10-18T01:06:28.331Z,102587.59
2022-10-18T01:09:14.395Z,102583.25
2022-10-18T01:12:15.184Z,102579.75
2022-10-18T01:14:52.927Z,102569.25
2022-10-18T01:17:33.460Z,102573.72
2022-10-18T01:20:22.564Z,102572.84
2022-10-18T01:23:12.951Z,102565.00
2022-10-18T01:25:58.888Z,102575.50
2022-10-18T01:28:52.007Z,102571.97
2022-10-18T01:31:27.916Z,102577.28
2022-10-18T01:36:42.935Z,102579.06
2022-10-18T01:39:18.621Z,102572.03
2022-10-18T01:41:48.673Z,102573.81
2022-10-18T01:44:21.700Z,102575.53
2022-10-18T01:46:51.202Z,102570.25
2022-10-18T01:49:19.240Z,102571.19
2022-10-18T01:51:48.605Z,102566.81
2022-10-18T01:54:22.150Z,102572.09
2022-10-18T01:57:01.956Z,102566.84
2022-10-18T01:59:54.414Z,102558.06
2022-10-18T02:02:36.593Z,102565.94
2022-10-18T02:05:18.204Z,102560.69
2022-10-18T02:08:22.434Z,102565.13
2022-10-18T02:11:04.843Z,102564.25
2022-10-18T02:13:56.943Z,102562.50
2022-10-18T02:16:46.152Z,102557.22
2022-10-18T02:19:32.724Z,102556.38
2022-10-18T02:22:01.722Z,102554.56
2022-10-18T02:24:38.692Z,102564.13
2022-10-18T02:27:06.561Z,102560.53
2022-10-18T02:29:35.573Z,102556.13
2022-10-18T02:32:32.620Z,102546.38
2022-10-18T02:35:07.879Z,102552.50
2022-10-18T02:37:39.255Z,102551.66
2022-10-18T02:40:09.402Z,102549.00
2022-10-18T02:42:47.826Z,102550.78
2022-10-18T02:45:16.647Z,102549.00
2022-10-18T02:47:44.920Z,102541.13
2022-10-18T02:50:13.181Z,102539.38
2022-10-18T02:52:40.638Z,102547.25
2022-10-18T02:55:08.643Z,102551.69
2022-10-18T02:57:38.078Z,102549.03
2022-10-18T03:00:06.488Z,102544.63
2022-10-18T03:02:34.391Z,102544.63
2022-10-18T03:05:03.560Z,102544.56
2022-10-18T03:07:31.597Z,102547.19
2022-10-18T03:09:59.255Z,102547.19
2022-10-18T03:12:26.811Z,102537.56
2022-10-18T03:14:54.738Z,102539.34
2022-10-18T03:17:22.336Z,102535.88
2022-10-18T03:19:51.639Z,102548.13
2022-10-18T03:22:19.401Z,102542.00
2022-10-18T03:24:46.976Z,102536.75
2022-10-18T03:27:14.657Z,102535.91
2022-10-18T03:29:42.152Z,102534.19
2022-10-18T03:32:09.733Z,102528.03
2022-10-18T03:34:37.478Z,102518.44
2022-10-18T03:37:05.544Z,102523.66
2022-10-18T03:39:33.108Z,102522.81
2022-10-18T03:42:00.672Z,102520.19
2022-10-18T03:44:28.384Z,102522.84
2022-10-18T03:46:55.872Z,102518.44
2022-10-18T03:49:23.689Z,102517.59
2022-10-18T03:51:51.456Z,102509.72
2022-10-18T03:54:19.017Z,102508.03
2022-10-18T03:56:46.593Z,102507.97
2022-10-18T03:59:14.271Z,102501.84
2022-10-18T04:01:42.181Z,102489.56
2022-10-18T04:04:09.889Z,102487.72
2022-10-18T04:06:37.488Z,102496.53
2022-10-18T04:09:07.862Z,102493.94
2022-10-18T04:11:37.948Z,102490.41
2022-10-18T04:14:05.483Z,102480.81
2022-10-18T04:16:33.128Z,102478.22
2022-10-18T04:19:04.899Z,102477.31
2022-10-18T04:21:32.421Z,102476.41
2022-10-18T04:24:00.195Z,102480.72
2022-10-18T04:26:27.781Z,102486.81
2022-10-18T04:28:55.429Z,102488.50
2022-10-18T04:31:22.968Z,102477.88
2022-10-18T04:33:50.506Z,102475.19
2022-10-18T04:36:18.454Z,102480.38
2022-10-18T04:38:46.945Z,102482.94
2022-10-18T04:41:14.711Z,102481.16
2022-10-18T04:43:42.698Z,102475.81
2022-10-18T04:46:10.250Z,102481.97
2022-10-18T04:48:37.717Z,102480.25
2022-10-18T04:51:05.694Z,102488.13
2022-10-18T04:53:33.244Z,102492.56
2022-10-18T04:56:00.806Z,102490.81
2022-10-18T04:58:28.389Z,102491.63
2022-10-18T05:00:56.039Z,102495.91
2022-10-18T05:03:23.681Z,102495.91
2022-10-18T05:06:01.363Z,102489.75
2022-10-18T05:08:35.352Z,102502.88
2022-10-18T05:11:04.439Z,102495.84
2022-10-18T05:13:33.425Z,102502.81
2022-10-18T05:16:01.116Z,102495.72
2022-10-18T05:18:31.755Z,102492.16
2022-10-18T05:20:59.713Z,102493.00
2022-10-18T05:23:27.215Z,102506.13
2022-10-18T05:25:54.832Z,102505.19
2022-10-18T05:28:41.041Z,102508.59
2022-10-18T05:31:11.710Z,102508.53
2022-10-18T05:33:39.752Z,102504.97
2022-10-18T05:36:08.208Z,102511.03
2022-10-18T05:38:39.250Z,102508.38
2022-10-18T05:41:07.112Z,102507.47
2022-10-18T05:43:34.714Z,102506.56
2022-10-18T05:46:04.251Z,102504.78
2022-10-18T05:48:32.030Z,102505.59
2022-10-18T05:51:00.725Z,102512.50
2022-10-18T05:53:36.676Z,102515.03
2022-10-18T05:56:04.968Z,102521.00
2022-10-18T05:58:33.561Z,102519.09
2022-10-18T06:01:05.391Z,102522.53
2022-10-18T06:03:34.801Z,102522.44
2022-10-18T06:06:10.745Z,102517.06
2022-10-18T06:08:40.168Z,102523.97
2022-10-18T06:11:15.183Z,102522.13
2022-10-18T06:13:44.910Z,102525.59
2022-10-18T06:16:14.124Z,102525.41
2022-10-18T06:18:42.517Z,102521.75
2022-10-18T06:21:12.966Z,102525.16
2022-10-18T06:23:41.051Z,102528.44
2022-10-18T06:26:11.732Z,102529.91
2022-10-18T06:28:39.469Z,102530.53
2022-10-18T06:31:08.653Z,102513.66
2022-10-18T06:33:37.443Z,102518.69
2022-10-18T06:36:08.205Z,102521.94
2022-10-18T06:38:36.416Z,102525.25
2022-10-18T06:41:05.490Z,102518.00
2022-10-18T06:43:33.517Z,102523.00
2022-10-18T06:46:05.098Z,102515.75
2022-10-18T06:48:33.567Z,102513.69
2022-10-18T06:51:03.498Z,102515.22
2022-10-18T06:53:33.636Z,102509.78
2022-10-18T06:56:07.267Z,102500.78
2022-10-18T06:58:36.871Z,102512.91
2022-10-18T07:01:12.688Z,102500.25
2022-10-18T07:03:41.247Z,102486.09
2022-10-18T07:06:11.152Z,102475.44
2022-10-18T07:08:39.339Z,102475.84
2022-10-18T07:11:15.349Z,102460.72
2022-10-18T07:13:43.039Z,102460.59
2022-10-18T07:16:17.301Z,102454.00
2022-10-18T07:18:51.103Z,102448.50
2022-10-18T07:21:22.254Z,102452.63
2022-10-18T07:23:50.880Z,102443.44
2022-10-18T07:26:21.392Z,102436.00
2022-10-18T07:28:55.430Z,102439.09
2022-10-18T07:31:23.997Z,102425.41
2022-10-18T07:33:52.793Z,102422.13
2022-10-18T07:36:22.218Z,102424.41
2022-10-18T07:38:52.073Z,102422.56
2022-10-18T07:41:20.313Z,102413.91
2022-10-18T07:43:51.036Z,102412.53
2022-10-18T07:46:20.680Z,102412.06
2022-10-18T07:48:48.275Z,102397.34
2022-10-18T07:51:16.652Z,102401.66
2022-10-18T07:53:44.443Z,102402.25
2022-10-18T07:56:16.647Z,102398.09
2022-10-18T07:58:47.381Z,102400.75
2022-10-18T08:01:15.996Z,102386.09
2022-10-18T08:03:47.139Z,102383.81
2022-10-18T08:06:18.483Z,102390.69
2022-10-18T08:08:47.368Z,102383.91
2022-10-18T08:11:17.744Z,102378.25
2022-10-18T08:13:45.914Z,102368.72
2022-10-18T08:16:16.717Z,102375.06
2022-10-18T08:18:44.781Z,102374.59
2022-10-18T08:21:17.784Z,102371.28
2022-10-18T08:23:47.745Z,102377.75
2022-10-18T08:26:20.357Z,102370.47
2022-10-18T08:28:54.282Z,102383.44
2022-10-18T08:31:31.782Z,102381.53
2022-10-18T08:34:00.139Z,102376.44
2022-10-18T08:36:28.625Z,102371.00
2022-10-18T08:38:56.194Z,102370.66
2022-10-18T08:41:54.954Z,102368.34
2022-10-18T08:44:33.332Z,102372.34
2022-10-18T08:47:05.853Z,102364.13
2022-10-18T08:49:44.131Z,102369.47
2022-10-18T08:52:27.864Z,102363.66
2022-10-18T08:55:18.729Z,102352.69
2022-10-18T08:57:47.700Z,102353.28
2022-10-18T09:00:21.740Z,102356.50
2022-10-18T09:03:12.469Z,102344.59
2022-10-18T09:05:51.779Z,102346.16
2022-10-18T09:08:51.495Z,102343.25
2022-10-18T09:12:01.021Z,102345.44
2022-10-18T09:14:35.928Z,102348.06
2022-10-18T09:17:25.464Z,102335.75
2022-10-18T09:20:11.106Z,102334.97
2022-10-18T09:22:38.697Z,102328.69
2022-10-18T09:25:23.441Z,102319.88
2022-10-18T09:27:57.329Z,102318.91
2022-10-18T09:30:39.875Z,102320.88
2022-10-18T09:33:26.180Z,102314.72
2022-10-18T09:35:59.215Z,102312.59
2022-10-18T09:38:32.109Z,102309.03
2022-10-18T09:41:10.234Z,102301.72
2022-10-18T09:43:50.741Z,102291.34
2022-10-18T09:46:20.618Z,102285.50
2022-10-18T09:48:51.493Z,102287.63
2022-10-18T09:51:27.275Z,102281.16
2022-10-18T09:54:23.059Z,102270.59
2022-10-18T09:57:17.295Z,102272.00
2022-10-18T09:59:49.902Z,102262.72
2022-10-18T10:02:23.181Z,102255.94
2022-10-18T10:04:52.097Z,102260.59
2022-10-18T10:07:32.580Z,102261.72
2022-10-18T10:10:23.434Z,102258.91
2022-10-18T10:13:19.021Z,102246.63
2022-10-18T10:15:57.353Z,102248.88
2022-10-18T10:18:31.248Z,102244.47
2022-10-18T10:21:07.221Z,102238.34
2022-10-18T10:23:51.120Z,102232.28
2022-10-18T10:26:29.342Z,102234.25
2022-10-18T10:28:58.391Z,102220.78
2022-10-18T10:31:25.880Z,102212.94
2022-10-18T10:34:20.549Z,102210.69
2022-10-18T10:36:53.751Z,102199.31
2022-10-18T10:39:24.674Z,102198.81
2022-10-18T10:41:54.876Z,102188.19
2022-10-18T10:44:25.891Z,102176.56
2022-10-18T10:46:55.246Z,102183.44
2022-10-18T10:49:44.153Z,102179.25
2022-10-18T10:52:28.835Z,102175.50
2022-10-18T10:55:16.983Z,102167.13
2022-10-18T10:57:51.188Z,102176.66
2022-10-18T11:00:36.977Z,102164.59
2022-10-18T11:03:28.605Z,102163.00
2022-10-18T11:06:02.035Z,102164.91
2022-10-18T11:08:38.878Z,102160.69
2022-10-18T11:11:22.880Z,102148.97
2022-10-18T11:17:08.451Z,102145.50
2022-10-18T11:19:50.273Z,102139.75
2022-10-18T11:22:23.776Z,102138.16
2022-10-18T11:24:51.776Z,102135.94
2022-10-18T11:27:34.156Z,102136.81
2022-10-18T11:30:35.083Z,102133.84
2022-10-18T11:34:03.707Z,102121.59
2022-10-18T11:36:40.326Z,102120.22
2022-10-18T11:39:30.491Z,102112.56
2022-10-18T11:42:25.410Z,102112.03
2022-10-18T11:45:10.792Z,102107.41
2022-10-18T11:47:43.920Z,102106.09
2022-10-18T11:50:26.348Z,102098.81
2022-10-18T11:53:02.550Z,102089.88
2022-10-18T11:55:45.650Z,102098.88
2022-10-18T11:58:44.281Z,102096.53
2022-10-18T12:01:24.603Z,102094.31
2022-10-18T12:04:20.611Z,102093.28
2022-10-18T12:06:52.945Z,102081.28
2022-10-18T12:09:41.951Z,102081.97
2022-10-18T12:12:24.748Z,102074.38
2022-10-18T12:14:59.533Z,102072.34
2022-10-18T12:17:50.364Z,102064.19
2022-10-18T12:20:30.515Z,102071.81
2022-10-18T12:23:01.351Z,102058.00
2022-10-18T12:25:32.573Z,102060.88
2022-10-18T12:28:21.330Z,102056.69
2022-10-18T12:31:06.916Z,102052.75
2022-10-18T12:33:40.918Z,102051.84
2022-10-18T12:36:11.455Z,102049.72
2022-10-18T12:38:42.580Z,102034.63
2022-10-18T12:41:22.018Z,102033.75
2022-10-18T12:43:57.124Z,102033.94
2022-10-18T12:46:25.155Z,102032.28
2022-10-18T12:49:03.556Z,102031.41
2022-10-18T12:51:31.609Z,102019.63
2022-10-18T12:54:02.326Z,102020.50
2022-10-18T12:56:34.490Z,102012.34
2022-10-18T12:59:17.128Z,102013.53
2022-10-18T13:01:51.248Z,102009.88
2022-10-18T13:04:28.129Z,102002.19
2022-10-18T13:07:04.977Z,101992.84
2022-10-18T13:09:41.329Z,102002.31
2022-10-18T13:12:13.042Z,101993.94
2022-10-18T13:15:26.316Z,102000.59
2022-10-18T13:18:26.625Z,101990.41
2022-10-18T13:21:20.371Z,101983.28
2022-10-18T13:24:04.882Z,101988.25
2022-10-18T13:26:59.050Z,101982.78
2022-10-18T13:29:44.749Z,101978.94
2022-10-18T13:32:24.723Z,101975.16
2022-10-18T13:34:54.514Z,101973.66
2022-10-18T13:37:25.442Z,101967.72
2022-10-18T13:40:22.547Z,101969.09
2022-10-18T13:42:50.249Z,101963.91
2022-10-18T13:45:33.328Z,101957.06
2022-10-18T13:48:29.205Z,101953.81
2022-10-18T13:51:34.971Z,101942.88
2022-10-18T13:54:27.097Z,101941.81
2022-10-18T13:57:16.496Z,101941.06
2022-10-18T14:00:03.531Z,101930.00
2022-10-18T14:03:01.512Z,101930.44
2022-10-18T14:05:51.420Z,101926.56
2022-10-18T14:11:28.490Z,101920.25
2022-10-18T14:14:30.596Z,101913.97
2022-10-18T14:17:14.193Z,101909.78
2022-10-18T14:19:54.551Z,101905.78
2022-10-18T14:22:24.876Z,101900.97
2022-10-18T14:24:56.342Z,101900.69
2022-10-18T14:27:25.019Z,101895.03
2022-10-18T14:30:10.055Z,101887.41
2022-10-18T14:32:45.515Z,101890.81
2022-10-18T14:35:33.740Z,101885.84
2022-10-18T14:38:02.710Z,101886.75
2022-10-18T14:40:38.087Z,101883.66
2022-10-18T14:43:09.123Z,101879.56
2022-10-18T14:45:37.312Z,101873.38
2022-10-18T14:48:07.772Z,101876.41
2022-10-18T14:50:36.639Z,101871.72
2022-10-18T14:53:07.053Z,101874.53
2022-10-18T14:55:35.731Z,101875.31
2022-10-18T14:58:03.465Z,101871.53
2022-10-18T15:00:37.711Z,101871.13
2022-10-18T15:03:11.170Z,101878.56
2022-10-18T15:05:52.823Z,101865.41
2022-10-18T15:08:21.465Z,101866.09
2022-10-18T15:10:49.747Z,101863.09
2022-10-18T15:13:19.615Z,101864.13
2022-10-18T15:15:49.872Z,101863.59
2022-10-18T15:18:25.311Z,101860.31
2022-10-18T15:21:09.510Z,101855.53
2022-10-18T15:23:37.225Z,101852.44
2022-10-18T15:26:08.031Z,101847.44
2022-10-18T15:28:52.771Z,101851.19
2022-10-18T15:31:47.636Z,101849.66
2022-10-18T15:34:20.916Z,101857.47
2022-10-18T15:36:58.516Z,101851.38
2022-10-18T15:39:30.708Z,101847.75
2022-10-18T15:42:00.831Z,101839.69
2022-10-18T15:44:57.516Z,101842.63
2022-10-18T15:47:25.223Z,101831.25
2022-10-18T15:49:58.371Z,101839.00
2022-10-18T15:52:37.831Z,101837.28
2022-10-18T15:55:31.458Z,101834.88
2022-10-18T15:58:19.092Z,101834.34
2022-10-18T16:00:47.939Z,101828.56
2022-10-18T16:03:17.045Z,101832.50
2022-10-18T16:05:45.145Z,101832.66
2022-10-18T16:08:33.342Z,101835.09
2022-10-18T16:11:03.455Z,101829.66
2022-10-18T16:13:31.105Z,101833.28
2022-10-18T16:16:00.221Z,101824.53
2022-10-18T16:18:32.015Z,101830.25
2022-10-18T16:21:01.982Z,101823.22
2022-10-18T16:23:30.234Z,101816.25
2022-10-18T16:25:57.880Z,101819.03
2022-10-18T16:28:26.452Z,101806.41
2022-10-18T16:31:00.513Z,101808.38
2022-10-18T16:33:28.100Z,101797.91
2022-10-18T16:35:56.237Z,101801.84
2022-10-18T16:38:34.243Z,101797.69
2022-10-18T16:41:07.088Z,101799.72
2022-10-18T16:43:35.713Z,101800.59
2022-10-18T16:46:04.654Z,101789.09
2022-10-18T16:48:34.691Z,101788.09
2022-10-18T16:51:02.470Z,101785.47
2022-10-18T16:53:31.261Z,101788.41
2022-10-18T16:56:03.264Z,101784.03
2022-10-18T16:58:32.910Z,101777.06
2022-10-18T17:01:01.978Z,101772.19
2022-10-18T17:03:33.255Z,101769.78
2022-10-18T17:06:01.016Z,101766.16
2022-10-18T17:08:32.621Z,101780.91
2022-10-18T17:11:01.780Z,101768.69
2022-10-18T17:13:31.074Z,101759.41
2022-10-18T17:16:00.106Z,101754.09
2022-10-18T17:18:30.769Z,101751.50
2022-10-18T17:21:01.826Z,101754.25
2022-10-18T17:23:30.941Z,101752.69
2022-10-18T17:26:06.847Z,101742.53
2022-10-18T17:28:38.521Z,101749.88
2022-10-18T17:31:07.319Z,101740.41
2022-10-18T17:33:35.212Z,101742.31
2022-10-18T17:36:03.083Z,101734.34
2022-10-18T17:38:31.289Z,101724.56
2022-10-18T17:40:58.866Z,101725.19
2022-10-18T17:43:26.576Z,101719.63
2022-10-18T17:45:56.320Z,101726.81
2022-10-18T17:48:26.105Z,101716.94
2022-10-18T17:50:53.684Z,101717.13
2022-10-18T17:53:25.212Z,101714.56
2022-10-18T17:56:02.363Z,101708.53
2022-10-18T17:58:31.817Z,101716.41
2022-10-18T18:01:13.864Z,101706.81
2022-10-18T18:03:42.105Z,101704.28
2022-10-18T18:06:17.061Z,101700.72
2022-10-18T18:08:46.580Z,101698.97
2022-10-18T18:11:15.416Z,101694.91
2022-10-18T18:13:43.145Z,101695.09
2022-10-18T18:16:16.137Z,101689.94
2022-10-18T18:18:45.243Z,101695.47
2022-10-18T18:21:16.575Z,101696.66
2022-10-18T18:23:44.572Z,101696.72
2022-10-18T18:26:17.012Z,101701.63
2022-10-18T18:28:45.473Z,101695.63
2022-10-18T18:31:19.245Z,101686.81
2022-10-18T18:33:47.473Z,101690.44
2022-10-18T18:36:15.240Z,101675.22
2022-10-18T18:38:44.551Z,101681.31
2022-10-18T18:41:18.464Z,101674.84
2022-10-18T18:43:53.784Z,101680.09
2022-10-18T18:46:23.261Z,101673.66
2022-10-18T18:48:51.004Z,101664.91
2022-10-18T18:51:20.761Z,101664.28
2022-10-18T18:53:48.614Z,101660.69
2022-10-18T18:56:22.363Z,101656.63
2022-10-18T18:58:50.278Z,101653.41
2022-10-18T19:01:23.804Z,101650.31
2022-10-18T19:03:54.193Z,101651.38
2022-10-18T19:06:27.857Z,101650.41
2022-10-18T19:09:04.532Z,101642.66
2022-10-18T19:11:38.841Z,101638.63
2022-10-18T19:14:08.182Z,101632.69
2022-10-18T19:17:01.273Z,101635.56
2022-10-18T19:19:30.627Z,101640.19
2022-10-18T19:22:05.038Z,101634.06
2022-10-18T19:24:32.787Z,101634.31
2022-10-18T19:27:08.738Z,101637.19
2022-10-18T19:29:38.997Z,101627.63
2022-10-18T19:32:12.155Z,101623.44
2022-10-18T19:34:40.439Z,101619.84
2022-10-18T19:37:10.316Z,101606.56
2022-10-18T19:39:38.281Z,101605.63
2022-10-18T19:42:09.104Z,101604.63
2022-10-18T19:44:37.687Z,101601.03
2022-10-18T19:47:06.995Z,101590.47
2022-10-18T19:49:36.605Z,101598.94
2022-10-18T19:52:04.905Z,101589.19
2022-10-18T19:54:32.925Z,101589.66
2022-10-18T19:57:00.887Z,101584.25
2022-10-18T19:59:28.485Z,101576.38
2022-10-18T20:01:56.081Z,101575.06
2022-10-18T20:04:23.683Z,101576.31
2022-10-18T20:06:51.216Z,101567.69
2022-10-18T20:09:21.402Z,101569.78
2022-10-18T20:11:48.938Z,101561.75
2022-10-18T20:14:16.396Z,101559.31
2022-10-18T20:16:47.067Z,101556.19
2022-10-18T20:19:15.988Z,101544.03
2022-10-18T20:21:44.404Z,101546.59
2022-10-18T20:24:13.100Z,101541.75
2022-10-18T20:26:41.346Z,101524.72
2022-10-18T20:29:10.461Z,101532.31
2022-10-18T20:31:39.428Z,101530.25
2022-10-18T20:34:10.578Z,101520.00
2022-10-18T20:36:40.194Z,101526.41
2022-10-18T20:39:07.929Z,101521.50
2022-10-18T20:41:38.652Z,101511.78
2022-10-18T20:44:09.760Z,101507.97
2022-10-18T20:46:38.857Z,101501.13
2022-10-18T20:49:08.306Z,101496.69
2022-10-18T20:51:36.238Z,101493.28
2022-10-18T20:56:39.485Z,101489.97
2022-10-18T20:59:09.910Z,101480.94
2022-10-18T21:01:39.583Z,101488.31
2022-10-18T21:04:09.424Z,101477.72
2022-10-18T21:06:40.255Z,101475.97
2022-10-18T21:09:13.709Z,101476.69
2022-10-18T21:11:45.075Z,101465.69
2022-10-18T21:14:16.966Z,101462.06
2022-10-18T21:16:45.413Z,101455.94
2022-10-18T21:19:16.408Z,101449.91
2022-10-18T21:21:47.145Z,101442.41
2022-10-18T21:24:15.122Z,101439.50
2022-10-18T21:26:42.683Z,101433.69
2022-10-18T21:29:11.519Z,101441.63
2022-10-18T21:31:42.180Z,101437.00
2022-10-18T21:34:14.064Z,101434.91
2022-10-18T21:36:44.150Z,101429.38
2022-10-18T21:39:17.848Z,101428.50
2022-10-18T21:41:46.888Z,101419.91
2022-10-18T21:44:15.607Z,101408.47
2022-10-18T21:46:43.792Z,101410.56
2022-10-18T21:49:11.844Z,101407.28
2022-10-18T21:51:40.418Z,101400.81
2022-10-18T21:54:12.477Z,101403.16
2022-10-18T21:56:40.361Z,101403.34
2022-10-18T21:59:12.505Z,101397.53
2022-10-18T22:01:41.560Z,101396.09
2022-10-18T22:04:20.059Z,101393.91
2022-10-18T22:06:50.501Z,101384.72
2022-10-18T22:09:21.280Z,101396.78
2022-10-18T22:11:51.569Z,101384.03
2022-10-18T22:14:19.840Z,101384.53
2022-10-18T22:16:47.440Z,101384.31
2022-10-18T22:19:16.921Z,101380.44
2022-10-18T22:21:45.026Z,101375.22
2022-10-18T22:24:12.935Z,101370.66
2022-10-18T22:26:43.300Z,101363.88
2022-10-18T22:29:16.484Z,101368.34
2022-10-18T22:31:47.443Z,101365.50
2022-10-18T22:34:18.587Z,101361.03
2022-10-18T22:36:46.627Z,101361.03
2022-10-18T22:39:15.370Z,101358.94
2022-10-18T22:41:44.275Z,101351.25
2022-10-18T22:44:13.428Z,101357.41
2022-10-18T22:46:42.309Z,101352.69
2022-10-18T22:49:11.568Z,101345.47
2022-10-18T22:51:39.328Z,101335.28
2022-10-18T22:54:07.388Z,101321.56
2022-10-18T22:56:35.380Z,101330.28
2022-10-18T22:59:03.353Z,101324.97
2022-10-18T23:01:30.925Z,101317.31
2022-10-18T23:04:00.044Z,101314.81
2022-10-18T23:06:33.587Z,101309.91
2022-10-18T23:09:05.089Z,101310.31
2022-10-18T23:11:34.399Z,101307.56
2022-10-18T23:14:03.838Z,101310.34
2022-10-18T23:16:32.480Z,101302.19
2022-10-18T23:19:00.120Z,101307.94
2022-10-18T23:21:29.137Z,101297.91
2022-10-18T23:23:57.565Z,101296.88
2022-10-18T23:26:27.094Z,101298.34
2022-10-18T23:28:55.299Z,101293.47
2022-10-18T23:31:31.949Z,101287.25
2022-10-18T23:34:02.027Z,101284.78
2022-10-18T23:36:31.265Z,101279.75
2022-10-18T23:38:59.379Z,101268.91
2022-10-18T23:41:26.886Z,101268.91
2022-10-18T23:43:55.121Z,101267.44
2022-10-18T23:46:22.675Z,101261.00
2022-10-18T23:48:50.453Z,101259.13
2022-10-18T23:51:18.349Z,101252.78
2022-10-18T23:53:47.278Z,101254.78
2022-10-18T23:56:16.369Z,101247.81
2022-10-18T23:58:45.743Z,101244.19
